sensor_id;sensor_type;location;lat;lon;timestamp;P1;durP1;ratioP1;P2;durP2;ratioP2
1296;SDS011;641;48.492;9.184;2023-07-09T00:01:49;10.17;;;3.90;;
1296;SDS011;641;48.492;9.184;2023-07-09T00:04:17;10.90;;;3.43;;
1296;SDS011;641;48.492;9.184;2023-07-09T00:06:43;10.80;;;4.27;;
1296;SDS011;641;48.492;9.184;2023-07-09T00:09:13;11.10;;;4.30;;
1296;SDS011;641;48.492;9.184;2023-07-09T00:11:41;10.10;;;4.43;;
1296;SDS011;641;48.492;9.184;2023-07-09T00:14:08;11.60;;;4.20;;
1296;SDS011;641;48.492;9.184;2023-07-09T00:16:38;13.03;;;4.90;;
1296;SDS011;641;48.492;9.184;2023-07-09T00:19:11;10.97;;;3.90;;
1296;SDS011;641;48.492;9.184;2023-07-09T00:21:38;13.00;;;4.80;;
1296;SDS011;641;48.492;9.184;2023-07-09T00:24:05;12.40;;;5.10;;
1296;SDS011;641;48.492;9.184;2023-07-09T00:26:31;12.17;;;5.50;;
1296;SDS011;641;48.492;9.184;2023-07-09T00:28:58;15.80;;;5.70;;
1296;SDS011;641;48.492;9.184;2023-07-09T00:31:24;13.83;;;6.30;;
1296;SDS011;641;48.492;9.184;2023-07-09T00:33:51;11.47;;;5.43;;
1296;SDS011;641;48.492;9.184;2023-07-09T00:36:20;10.67;;;4.30;;
1296;SDS011;641;48.492;9.184;2023-07-09T00:38:52;13.17;;;5.57;;
1296;SDS011;641;48.492;9.184;2023-07-09T00:41:19;13.37;;;5.43;;
1296;SDS011;641;48.492;9.184;2023-07-09T00:43:48;14.30;;;6.50;;
1296;SDS011;641;48.492;9.184;2023-07-09T00:48:45;13.07;;;5.50;;
1296;SDS011;641;48.492;9.184;2023-07-09T00:51:14;11.67;;;5.73;;
1296;SDS011;641;48.492;9.184;2023-07-09T00:53:43;11.40;;;4.90;;
1296;SDS011;641;48.492;9.184;2023-07-09T00:56:16;10.93;;;5.20;;
1296;SDS011;641;48.492;9.184;2023-07-09T00:58:51;10.33;;;4.30;;
1296;SDS011;641;48.492;9.184;2023-07-09T01:01:19;10.00;;;4.40;;
1296;SDS011;641;48.492;9.184;2023-07-09T01:03:47;10.33;;;4.17;;
1296;SDS011;641;48.492;9.184;2023-07-09T01:06:16;11.37;;;4.53;;
1296;SDS011;641;48.492;9.184;2023-07-09T01:08:45;10.17;;;4.30;;
1296;SDS011;641;48.492;9.184;2023-07-09T01:11:17;13.77;;;3.80;;
1296;SDS011;641;48.492;9.184;2023-07-09T01:13:46;11.57;;;5.10;;
1296;SDS011;641;48.492;9.184;2023-07-09T01:16:16;10.40;;;4.07;;
1296;SDS011;641;48.492;9.184;2023-07-09T01:18:42;15.00;;;4.50;;
1296;SDS011;641;48.492;9.184;2023-07-09T01:21:08;10.30;;;4.40;;
1296;SDS011;641;48.492;9.184;2023-07-09T01:23:40;10.23;;;4.80;;
1296;SDS011;641;48.492;9.184;2023-07-09T01:26:13;12.50;;;4.17;;
1296;SDS011;641;48.492;9.184;2023-07-09T01:28:40;10.17;;;4.80;;
1296;SDS011;641;48.492;9.184;2023-07-09T01:31:08;9.77;;;4.40;;
1296;SDS011;641;48.492;9.184;2023-07-09T01:33:39;12.23;;;5.10;;
1296;SDS011;641;48.492;9.184;2023-07-09T01:36:07;10.70;;;4.80;;
1296;SDS011;641;48.492;9.184;2023-07-09T01:38:38;10.47;;;4.53;;
1296;SDS011;641;48.492;9.184;2023-07-09T01:41:05;11.87;;;4.27;;
1296;SDS011;641;48.492;9.184;2023-07-09T01:43:31;11.70;;;4.40;;
1296;SDS011;641;48.492;9.184;2023-07-09T01:45:57;12.70;;;5.90;;
1296;SDS011;641;48.492;9.184;2023-07-09T01:48:24;13.80;;;4.67;;
1296;SDS011;641;48.492;9.184;2023-07-09T01:50:50;10.10;;;4.60;;
1296;SDS011;641;48.492;9.184;2023-07-09T01:53:17;10.27;;;4.33;;
1296;SDS011;641;48.492;9.184;2023-07-09T01:55:48;11.00;;;4.60;;
1296;SDS011;641;48.492;9.184;2023-07-09T01:58:14;11.83;;;4.00;;
1296;SDS011;641;48.492;9.184;2023-07-09T02:00:41;9.20;;;3.80;;
1296;SDS011;641;48.492;9.184;2023-07-09T02:03:07;10.10;;;4.47;;
1296;SDS011;641;48.492;9.184;2023-07-09T02:05:34;10.20;;;4.07;;
1296;SDS011;641;48.492;9.184;2023-07-09T02:08:01;10.10;;;3.50;;
1296;SDS011;641;48.492;9.184;2023-07-09T02:10:26;11.63;;;4.57;;
1296;SDS011;641;48.492;9.184;2023-07-09T02:12:52;10.40;;;4.00;;
1296;SDS011;641;48.492;9.184;2023-07-09T02:15:18;9.70;;;4.67;;
1296;SDS011;641;48.492;9.184;2023-07-09T02:17:43;11.30;;;3.63;;
1296;SDS011;641;48.492;9.184;2023-07-09T02:20:09;11.50;;;4.70;;
1296;SDS011;641;48.492;9.184;2023-07-09T02:22:36;11.10;;;4.80;;
1296;SDS011;641;48.492;9.184;2023-07-09T02:25:03;11.40;;;4.13;;
1296;SDS011;641;48.492;9.184;2023-07-09T02:27:30;11.03;;;4.03;;
1296;SDS011;641;48.492;9.184;2023-07-09T02:29:56;11.07;;;4.77;;
1296;SDS011;641;48.492;9.184;2023-07-09T02:32:24;9.77;;;4.07;;
1296;SDS011;641;48.492;9.184;2023-07-09T02:34:52;11.07;;;4.20;;
1296;SDS011;641;48.492;9.184;2023-07-09T02:37:22;10.93;;;3.70;;
1296;SDS011;641;48.492;9.184;2023-07-09T02:39:50;9.27;;;3.30;;
1296;SDS011;641;48.492;9.184;2023-07-09T02:42:17;10.90;;;3.53;;
1296;SDS011;641;48.492;9.184;2023-07-09T02:44:44;10.40;;;4.73;;
1296;SDS011;641;48.492;9.184;2023-07-09T02:47:10;13.40;;;4.97;;
1296;SDS011;641;48.492;9.184;2023-07-09T02:49:36;10.50;;;4.27;;
1296;SDS011;641;48.492;9.184;2023-07-09T02:52:03;9.07;;;3.90;;
1296;SDS011;641;48.492;9.184;2023-07-09T02:54:29;9.60;;;3.83;;
1296;SDS011;641;48.492;9.184;2023-07-09T02:56:54;9.53;;;3.57;;
1296;SDS011;641;48.492;9.184;2023-07-09T02:59:20;10.57;;;4.43;;
1296;SDS011;641;48.492;9.184;2023-07-09T03:01:46;13.00;;;3.67;;
1296;SDS011;641;48.492;9.184;2023-07-09T03:04:12;10.57;;;4.77;;
1296;SDS011;641;48.492;9.184;2023-07-09T03:06:39;9.03;;;3.77;;
1296;SDS011;641;48.492;9.184;2023-07-09T03:09:05;10.20;;;4.23;;
1296;SDS011;641;48.492;9.184;2023-07-09T03:11:32;9.63;;;4.20;;
1296;SDS011;641;48.492;9.184;2023-07-09T03:13:59;9.47;;;3.93;;
1296;SDS011;641;48.492;9.184;2023-07-09T03:16:27;10.97;;;4.57;;
1296;SDS011;641;48.492;9.184;2023-07-09T03:18:53;10.20;;;4.80;;
1296;SDS011;641;48.492;9.184;2023-07-09T03:21:19;11.70;;;4.20;;
1296;SDS011;641;48.492;9.184;2023-07-09T03:23:46;13.57;;;5.13;;
1296;SDS011;641;48.492;9.184;2023-07-09T03:26:12;9.47;;;3.97;;
1296;SDS011;641;48.492;9.184;2023-07-09T03:28:37;10.60;;;3.67;;
1296;SDS011;641;48.492;9.184;2023-07-09T03:31:03;11.40;;;4.30;;
1296;SDS011;641;48.492;9.184;2023-07-09T03:33:29;12.00;;;4.53;;
1296;SDS011;641;48.492;9.184;2023-07-09T03:35:55;11.70;;;4.53;;
1296;SDS011;641;48.492;9.184;2023-07-09T03:38:20;10.97;;;4.23;;
1296;SDS011;641;48.492;9.184;2023-07-09T03:40:49;10.77;;;4.40;;
1296;SDS011;641;48.492;9.184;2023-07-09T03:43:16;10.97;;;3.87;;
1296;SDS011;641;48.492;9.184;2023-07-09T03:45:43;11.20;;;4.57;;
1296;SDS011;641;48.492;9.184;2023-07-09T03:48:09;12.17;;;5.00;;
1296;SDS011;641;48.492;9.184;2023-07-09T03:50:35;10.17;;;4.60;;
1296;SDS011;641;48.492;9.184;2023-07-09T03:53:01;11.30;;;4.80;;
1296;SDS011;641;48.492;9.184;2023-07-09T03:55:26;13.67;;;5.00;;
1296;SDS011;641;48.492;9.184;2023-07-09T03:57:53;8.67;;;3.80;;
1296;SDS011;641;48.492;9.184;2023-07-09T04:00:19;10.97;;;4.43;;
1296;SDS011;641;48.492;9.184;2023-07-09T04:02:45;11.10;;;4.60;;
1296;SDS011;641;48.492;9.184;2023-07-09T04:05:10;9.80;;;4.20;;
1296;SDS011;641;48.492;9.184;2023-07-09T04:07:36;11.47;;;4.37;;
1296;SDS011;641;48.492;9.184;2023-07-09T04:10:03;11.67;;;4.13;;
1296;SDS011;641;48.492;9.184;2023-07-09T04:12:30;8.70;;;3.70;;
1296;SDS011;641;48.492;9.184;2023-07-09T04:14:55;10.13;;;4.37;;
1296;SDS011;641;48.492;9.184;2023-07-09T04:17:21;13.00;;;4.63;;
1296;SDS011;641;48.492;9.184;2023-07-09T04:19:48;10.70;;;4.20;;
1296;SDS011;641;48.492;9.184;2023-07-09T04:22:17;8.50;;;3.30;;
1296;SDS011;641;48.492;9.184;2023-07-09T04:24:43;11.10;;;4.13;;
1296;SDS011;641;48.492;9.184;2023-07-09T04:27:09;10.93;;;3.93;;
1296;SDS011;641;48.492;9.184;2023-07-09T04:29:34;12.20;;;4.43;;
1296;SDS011;641;48.492;9.184;2023-07-09T04:32:04;12.83;;;3.93;;
1296;SDS011;641;48.492;9.184;2023-07-09T04:34:30;10.53;;;4.60;;
1296;SDS011;641;48.492;9.184;2023-07-09T04:36:56;10.53;;;4.03;;
1296;SDS011;641;48.492;9.184;2023-07-09T04:39:22;12.70;;;4.20;;
1296;SDS011;641;48.492;9.184;2023-07-09T04:41:47;9.73;;;3.87;;
1296;SDS011;641;48.492;9.184;2023-07-09T04:44:13;10.57;;;3.90;;
1296;SDS011;641;48.492;9.184;2023-07-09T04:46:39;10.20;;;4.10;;
1296;SDS011;641;48.492;9.184;2023-07-09T04:49:04;10.13;;;3.57;;
1296;SDS011;641;48.492;9.184;2023-07-09T04:51:30;11.20;;;4.10;;
1296;SDS011;641;48.492;9.184;2023-07-09T04:53:56;10.97;;;5.67;;
1296;SDS011;641;48.492;9.184;2023-07-09T04:56:22;11.77;;;4.40;;
1296;SDS011;641;48.492;9.184;2023-07-09T04:58:48;11.20;;;4.60;;
1296;SDS011;641;48.492;9.184;2023-07-09T05:01:13;11.00;;;5.03;;
1296;SDS011;641;48.492;9.184;2023-07-09T05:03:39;12.13;;;4.50;;
1296;SDS011;641;48.492;9.184;2023-07-09T05:06:04;10.10;;;4.13;;
1296;SDS011;641;48.492;9.184;2023-07-09T05:08:30;11.13;;;4.43;;
1296;SDS011;641;48.492;9.184;2023-07-09T05:10:56;10.50;;;4.50;;
1296;SDS011;641;48.492;9.184;2023-07-09T05:13:23;13.33;;;5.07;;
1296;SDS011;641;48.492;9.184;2023-07-09T05:15:49;10.17;;;4.50;;
1296;SDS011;641;48.492;9.184;2023-07-09T05:18:15;10.77;;;4.43;;
1296;SDS011;641;48.492;9.184;2023-07-09T05:20:42;13.77;;;4.70;;
1296;SDS011;641;48.492;9.184;2023-07-09T05:23:08;15.80;;;4.90;;
1296;SDS011;641;48.492;9.184;2023-07-09T05:25:34;16.00;;;5.30;;
1296;SDS011;641;48.492;9.184;2023-07-09T05:28:00;12.07;;;5.03;;
1296;SDS011;641;48.492;9.184;2023-07-09T05:30:26;11.93;;;4.70;;
1296;SDS011;641;48.492;9.184;2023-07-09T05:32:52;9.70;;;3.87;;
1296;SDS011;641;48.492;9.184;2023-07-09T05:35:20;9.93;;;4.50;;
1296;SDS011;641;48.492;9.184;2023-07-09T05:37:46;15.63;;;4.90;;
1296;SDS011;641;48.492;9.184;2023-07-09T05:40:12;11.30;;;4.87;;
1296;SDS011;641;48.492;9.184;2023-07-09T05:42:38;11.17;;;4.63;;
1296;SDS011;641;48.492;9.184;2023-07-09T05:45:04;11.67;;;5.30;;
1296;SDS011;641;48.492;9.184;2023-07-09T05:47:30;10.07;;;4.50;;
1296;SDS011;641;48.492;9.184;2023-07-09T05:49:55;13.27;;;5.17;;
1296;SDS011;641;48.492;9.184;2023-07-09T05:52:21;11.13;;;5.20;;
1296;SDS011;641;48.492;9.184;2023-07-09T05:54:49;10.87;;;5.20;;
1296;SDS011;641;48.492;9.184;2023-07-09T05:57:15;11.90;;;4.70;;
1296;SDS011;641;48.492;9.184;2023-07-09T05:59:41;11.17;;;5.10;;
1296;SDS011;641;48.492;9.184;2023-07-09T06:02:10;9.40;;;4.40;;
1296;SDS011;641;48.492;9.184;2023-07-09T06:04:40;10.20;;;5.10;;
1296;SDS011;641;48.492;9.184;2023-07-09T06:07:07;11.40;;;4.83;;
1296;SDS011;641;48.492;9.184;2023-07-09T06:09:34;10.73;;;4.93;;
1296;SDS011;641;48.492;9.184;2023-07-09T06:12:00;13.10;;;5.70;;
1296;SDS011;641;48.492;9.184;2023-07-09T06:14:26;12.03;;;4.73;;
1296;SDS011;641;48.492;9.184;2023-07-09T06:16:52;10.83;;;5.00;;
1296;SDS011;641;48.492;9.184;2023-07-09T06:19:17;13.30;;;4.90;;
1296;SDS011;641;48.492;9.184;2023-07-09T06:21:43;12.10;;;4.60;;
1296;SDS011;641;48.492;9.184;2023-07-09T06:24:09;12.27;;;5.53;;
1296;SDS011;641;48.492;9.184;2023-07-09T06:26:34;9.33;;;4.80;;
1296;SDS011;641;48.492;9.184;2023-07-09T06:29:00;14.80;;;4.97;;
1296;SDS011;641;48.492;9.184;2023-07-09T06:31:26;11.43;;;5.13;;
1296;SDS011;641;48.492;9.184;2023-07-09T06:33:51;12.57;;;5.20;;
1296;SDS011;641;48.492;9.184;2023-07-09T06:36:18;11.07;;;5.03;;
1296;SDS011;641;48.492;9.184;2023-07-09T06:38:43;10.90;;;4.97;;
1296;SDS011;641;48.492;9.184;2023-07-09T06:41:09;10.30;;;4.73;;
1296;SDS011;641;48.492;9.184;2023-07-09T06:43:35;11.53;;;5.40;;
1296;SDS011;641;48.492;9.184;2023-07-09T06:46:04;9.80;;;4.87;;
1296;SDS011;641;48.492;9.184;2023-07-09T06:48:31;10.30;;;5.13;;
1296;SDS011;641;48.492;9.184;2023-07-09T06:50:57;12.00;;;5.00;;
1296;SDS011;641;48.492;9.184;2023-07-09T06:53:23;9.97;;;5.00;;
1296;SDS011;641;48.492;9.184;2023-07-09T06:55:50;11.30;;;5.10;;
1296;SDS011;641;48.492;9.184;2023-07-09T06:58:17;11.30;;;4.97;;
1296;SDS011;641;48.492;9.184;2023-07-09T07:00:44;11.20;;;4.87;;
1296;SDS011;641;48.492;9.184;2023-07-09T07:03:10;10.50;;;4.57;;
1296;SDS011;641;48.492;9.184;2023-07-09T07:05:36;13.40;;;5.67;;
1296;SDS011;641;48.492;9.184;2023-07-09T07:08:02;9.73;;;4.50;;
1296;SDS011;641;48.492;9.184;2023-07-09T07:10:28;14.03;;;5.50;;
1296;SDS011;641;48.492;9.184;2023-07-09T07:12:54;13.33;;;5.30;;
1296;SDS011;641;48.492;9.184;2023-07-09T07:15:21;10.73;;;5.10;;
1296;SDS011;641;48.492;9.184;2023-07-09T07:17:46;12.60;;;4.97;;
1296;SDS011;641;48.492;9.184;2023-07-09T07:20:13;12.60;;;5.33;;
1296;SDS011;641;48.492;9.184;2023-07-09T07:22:40;12.00;;;5.57;;
1296;SDS011;641;48.492;9.184;2023-07-09T07:25:06;9.60;;;4.93;;
1296;SDS011;641;48.492;9.184;2023-07-09T07:27:32;11.20;;;5.17;;
1296;SDS011;641;48.492;9.184;2023-07-09T07:29:58;11.50;;;5.80;;
1296;SDS011;641;48.492;9.184;2023-07-09T07:32:25;12.50;;;5.70;;
1296;SDS011;641;48.492;9.184;2023-07-09T07:34:50;13.67;;;6.40;;
1296;SDS011;641;48.492;9.184;2023-07-09T07:37:17;10.50;;;4.70;;
1296;SDS011;641;48.492;9.184;2023-07-09T07:39:46;13.37;;;5.73;;
1296;SDS011;641;48.492;9.184;2023-07-09T07:42:13;10.67;;;5.47;;
1296;SDS011;641;48.492;9.184;2023-07-09T07:44:38;11.70;;;5.50;;
1296;SDS011;641;48.492;9.184;2023-07-09T07:47:04;19.10;;;6.30;;
1296;SDS011;641;48.492;9.184;2023-07-09T07:49:30;11.97;;;6.10;;
1296;SDS011;641;48.492;9.184;2023-07-09T07:51:56;11.50;;;5.00;;
1296;SDS011;641;48.492;9.184;2023-07-09T07:54:22;11.43;;;5.60;;
1296;SDS011;641;48.492;9.184;2023-07-09T07:56:47;10.87;;;5.00;;
1296;SDS011;641;48.492;9.184;2023-07-09T07:59:13;10.53;;;5.03;;
1296;SDS011;641;48.492;9.184;2023-07-09T08:01:39;10.73;;;4.80;;
1296;SDS011;641;48.492;9.184;2023-07-09T08:04:05;12.37;;;5.30;;
1296;SDS011;641;48.492;9.184;2023-07-09T08:06:31;11.10;;;5.10;;
1296;SDS011;641;48.492;9.184;2023-07-09T08:08:57;10.60;;;4.90;;
1296;SDS011;641;48.492;9.184;2023-07-09T08:11:23;10.97;;;5.20;;
1296;SDS011;641;48.492;9.184;2023-07-09T08:13:49;12.63;;;4.50;;
1296;SDS011;641;48.492;9.184;2023-07-09T08:16:16;12.90;;;5.30;;
1296;SDS011;641;48.492;9.184;2023-07-09T08:18:41;10.73;;;4.50;;
1296;SDS011;641;48.492;9.184;2023-07-09T08:21:07;9.87;;;4.33;;
1296;SDS011;641;48.492;9.184;2023-07-09T08:23:34;12.20;;;4.80;;
1296;SDS011;641;48.492;9.184;2023-07-09T08:26:00;9.90;;;4.00;;
1296;SDS011;641;48.492;9.184;2023-07-09T08:28:28;10.67;;;5.03;;
1296;SDS011;641;48.492;9.184;2023-07-09T08:30:55;9.77;;;3.80;;
1296;SDS011;641;48.492;9.184;2023-07-09T08:33:21;12.27;;;4.30;;
1296;SDS011;641;48.492;9.184;2023-07-09T08:35:48;8.77;;;3.53;;
1296;SDS011;641;48.492;9.184;2023-07-09T08:38:15;11.27;;;4.40;;
1296;SDS011;641;48.492;9.184;2023-07-09T08:40:41;9.70;;;4.63;;
1296;SDS011;641;48.492;9.184;2023-07-09T08:43:20;11.10;;;4.57;;
1296;SDS011;641;48.492;9.184;2023-07-09T08:48:46;10.63;;;4.17;;
1296;SDS011;641;48.492;9.184;2023-07-09T08:51:17;10.83;;;3.87;;
1296;SDS011;641;48.492;9.184;2023-07-09T08:53:50;10.13;;;4.47;;
1296;SDS011;641;48.492;9.184;2023-07-09T08:56:20;13.20;;;4.33;;
1296;SDS011;641;48.492;9.184;2023-07-09T08:58:47;9.63;;;3.57;;
1296;SDS011;641;48.492;9.184;2023-07-09T09:01:32;12.70;;;4.23;;
1296;SDS011;641;48.492;9.184;2023-07-09T09:04:13;10.10;;;4.10;;
1296;SDS011;641;48.492;9.184;2023-07-09T09:06:46;10.27;;;3.80;;
1296;SDS011;641;48.492;9.184;2023-07-09T09:09:26;9.63;;;3.90;;
1296;SDS011;641;48.492;9.184;2023-07-09T09:12:18;10.53;;;4.27;;
1296;SDS011;641;48.492;9.184;2023-07-09T09:17:52;9.70;;;3.90;;
1296;SDS011;641;48.492;9.184;2023-07-09T09:20:21;10.10;;;3.77;;
1296;SDS011;641;48.492;9.184;2023-07-09T09:22:48;10.47;;;3.57;;
1296;SDS011;641;48.492;9.184;2023-07-09T09:25:27;12.27;;;4.00;;
1296;SDS011;641;48.492;9.184;2023-07-09T09:27:55;11.80;;;3.80;;
1296;SDS011;641;48.492;9.184;2023-07-09T09:30:21;10.90;;;4.30;;
1296;SDS011;641;48.492;9.184;2023-07-09T09:32:56;8.80;;;3.80;;
1296;SDS011;641;48.492;9.184;2023-07-09T09:35:32;11.40;;;4.10;;
1296;SDS011;641;48.492;9.184;2023-07-09T09:38:00;10.87;;;4.60;;
1296;SDS011;641;48.492;9.184;2023-07-09T09:40:27;8.90;;;3.70;;
1296;SDS011;641;48.492;9.184;2023-07-09T09:42:55;10.60;;;3.90;;
1296;SDS011;641;48.492;9.184;2023-07-09T09:45:25;10.20;;;3.80;;
1296;SDS011;641;48.492;9.184;2023-07-09T09:47:58;9.13;;;3.63;;
1296;SDS011;641;48.492;9.184;2023-07-09T09:50:25;9.60;;;4.00;;
1296;SDS011;641;48.492;9.184;2023-07-09T09:52:56;9.97;;;4.33;;
1296;SDS011;641;48.492;9.184;2023-07-09T09:55:24;9.33;;;3.40;;
1296;SDS011;641;48.492;9.184;2023-07-09T09:57:53;9.60;;;3.90;;
1296;SDS011;641;48.492;9.184;2023-07-09T10:00:23;10.13;;;3.30;;
1296;SDS011;641;48.492;9.184;2023-07-09T10:03:01;10.00;;;3.57;;
1296;SDS011;641;48.492;9.184;2023-07-09T10:05:32;10.00;;;3.43;;
1296;SDS011;641;48.492;9.184;2023-07-09T10:08:08;10.10;;;3.50;;
1296;SDS011;641;48.492;9.184;2023-07-09T10:10:36;9.47;;;4.07;;
1296;SDS011;641;48.492;9.184;2023-07-09T10:13:16;9.90;;;3.93;;
1296;SDS011;641;48.492;9.184;2023-07-09T10:18:49;10.57;;;3.67;;
1296;SDS011;641;48.492;9.184;2023-07-09T10:27:09;10.50;;;3.73;;
1296;SDS011;641;48.492;9.184;2023-07-09T10:40:10;9.20;;;3.50;;
1296;SDS011;641;48.492;9.184;2023-07-09T10:42:47;9.50;;;2.90;;
1296;SDS011;641;48.492;9.184;2023-07-09T10:45:33;10.23;;;3.63;;
1296;SDS011;641;48.492;9.184;2023-07-09T10:48:04;10.30;;;4.00;;
1296;SDS011;641;48.492;9.184;2023-07-09T10:50:56;11.77;;;3.70;;
1296;SDS011;641;48.492;9.184;2023-07-09T10:56:00;11.37;;;3.77;;
1296;SDS011;641;48.492;9.184;2023-07-09T10:58:43;10.90;;;3.57;;
1296;SDS011;641;48.492;9.184;2023-07-09T11:01:25;10.37;;;3.80;;
1296;SDS011;641;48.492;9.184;2023-07-09T11:03:57;9.23;;;3.57;;
1296;SDS011;641;48.492;9.184;2023-07-09T11:09:04;11.43;;;3.60;;
1296;SDS011;641;48.492;9.184;2023-07-09T11:11:39;9.87;;;4.30;;
1296;SDS011;641;48.492;9.184;2023-07-09T11:14:21;10.73;;;3.70;;
1296;SDS011;641;48.492;9.184;2023-07-09T11:16:53;10.63;;;3.80;;
1296;SDS011;641;48.492;9.184;2023-07-09T11:19:22;10.00;;;3.00;;
1296;SDS011;641;48.492;9.184;2023-07-09T11:24:50;10.60;;;3.60;;
1296;SDS011;641;48.492;9.184;2023-07-09T11:29:48;10.37;;;3.57;;
1296;SDS011;641;48.492;9.184;2023-07-09T11:32:46;10.43;;;3.67;;
1296;SDS011;641;48.492;9.184;2023-07-09T11:35:22;10.90;;;3.40;;
1296;SDS011;641;48.492;9.184;2023-07-09T11:37:51;10.37;;;3.43;;
1296;SDS011;641;48.492;9.184;2023-07-09T11:40:18;12.10;;;3.60;;
1296;SDS011;641;48.492;9.184;2023-07-09T11:42:55;11.60;;;4.37;;
1296;SDS011;641;48.492;9.184;2023-07-09T11:45:26;14.70;;;3.80;;
1296;SDS011;641;48.492;9.184;2023-07-09T11:47:57;8.43;;;3.10;;
1296;SDS011;641;48.492;9.184;2023-07-09T11:50:41;11.60;;;3.47;;
1296;SDS011;641;48.492;9.184;2023-07-09T11:55:44;13.93;;;4.27;;
1296;SDS011;641;48.492;9.184;2023-07-09T11:58:12;10.53;;;4.87;;
1296;SDS011;641;48.492;9.184;2023-07-09T12:00:43;10.17;;;3.80;;
1296;SDS011;641;48.492;9.184;2023-07-09T12:03:22;9.40;;;3.40;;
1296;SDS011;641;48.492;9.184;2023-07-09T12:06:01;9.07;;;3.10;;
1296;SDS011;641;48.492;9.184;2023-07-09T12:08:33;10.90;;;3.40;;
1296;SDS011;641;48.492;9.184;2023-07-09T12:11:00;10.47;;;3.47;;
1296;SDS011;641;48.492;9.184;2023-07-09T12:13:26;9.70;;;3.70;;
1296;SDS011;641;48.492;9.184;2023-07-09T12:15:52;10.00;;;3.30;;
1296;SDS011;641;48.492;9.184;2023-07-09T12:18:18;9.93;;;3.37;;
1296;SDS011;641;48.492;9.184;2023-07-09T12:20:46;10.20;;;3.07;;
1296;SDS011;641;48.492;9.184;2023-07-09T12:23:27;10.90;;;3.33;;
1296;SDS011;641;48.492;9.184;2023-07-09T12:25:56;9.40;;;3.47;;
1296;SDS011;641;48.492;9.184;2023-07-09T12:28:26;8.77;;;3.13;;
1296;SDS011;641;48.492;9.184;2023-07-09T12:30:53;9.20;;;3.23;;
1296;SDS011;641;48.492;9.184;2023-07-09T12:33:20;9.37;;;3.70;;
1296;SDS011;641;48.492;9.184;2023-07-09T12:38:23;11.63;;;3.40;;
1296;SDS011;641;48.492;9.184;2023-07-09T12:40:52;11.97;;;3.30;;
1296;SDS011;641;48.492;9.184;2023-07-09T12:43:23;9.87;;;3.77;;
1296;SDS011;641;48.492;9.184;2023-07-09T12:45:52;8.70;;;2.90;;
1296;SDS011;641;48.492;9.184;2023-07-09T12:48:20;10.10;;;3.17;;
1296;SDS011;641;48.492;9.184;2023-07-09T12:50:48;8.47;;;3.37;;
1296;SDS011;641;48.492;9.184;2023-07-09T12:53:18;9.87;;;3.37;;
1296;SDS011;641;48.492;9.184;2023-07-09T12:55:48;9.30;;;2.90;;
1296;SDS011;641;48.492;9.184;2023-07-09T12:58:19;10.87;;;3.20;;
1296;SDS011;641;48.492;9.184;2023-07-09T13:00:51;10.23;;;3.00;;
1296;SDS011;641;48.492;9.184;2023-07-09T13:03:19;9.27;;;3.27;;
1296;SDS011;641;48.492;9.184;2023-07-09T13:05:51;9.47;;;3.00;;
1296;SDS011;641;48.492;9.184;2023-07-09T13:08:18;14.60;;;3.50;;
1296;SDS011;641;48.492;9.184;2023-07-09T13:10:44;10.00;;;3.40;;
1296;SDS011;641;48.492;9.184;2023-07-09T13:13:10;9.47;;;3.00;;
1296;SDS011;641;48.492;9.184;2023-07-09T13:15:39;9.27;;;3.30;;
1296;SDS011;641;48.492;9.184;2023-07-09T13:18:13;9.80;;;3.03;;
1296;SDS011;641;48.492;9.184;2023-07-09T13:20:40;13.10;;;3.60;;
1296;SDS011;641;48.492;9.184;2023-07-09T13:23:11;10.63;;;2.90;;
1296;SDS011;641;48.492;9.184;2023-07-09T13:25:41;9.00;;;3.03;;
1296;SDS011;641;48.492;9.184;2023-07-09T13:28:26;9.50;;;2.80;;
1296;SDS011;641;48.492;9.184;2023-07-09T13:30:57;10.10;;;3.00;;
1296;SDS011;641;48.492;9.184;2023-07-09T13:33:33;10.53;;;3.07;;
1296;SDS011;641;48.492;9.184;2023-07-09T13:35:59;9.30;;;3.17;;
1296;SDS011;641;48.492;9.184;2023-07-09T13:38:25;11.20;;;3.90;;
1296;SDS011;641;48.492;9.184;2023-07-09T13:40:53;9.87;;;3.00;;
1296;SDS011;641;48.492;9.184;2023-07-09T13:43:31;11.77;;;3.20;;
1296;SDS011;641;48.492;9.184;2023-07-09T13:45:58;10.43;;;3.40;;
1296;SDS011;641;48.492;9.184;2023-07-09T13:48:25;9.73;;;3.33;;
1296;SDS011;641;48.492;9.184;2023-07-09T13:50:52;9.60;;;2.80;;
1296;SDS011;641;48.492;9.184;2023-07-09T13:53:20;8.50;;;2.57;;
1296;SDS011;641;48.492;9.184;2023-07-09T13:55:48;9.87;;;3.03;;
1296;SDS011;641;48.492;9.184;2023-07-09T13:58:16;9.77;;;2.60;;
1296;SDS011;641;48.492;9.184;2023-07-09T14:00:47;14.07;;;3.83;;
1296;SDS011;641;48.492;9.184;2023-07-09T14:05:48;10.03;;;3.13;;
1296;SDS011;641;48.492;9.184;2023-07-09T14:08:15;11.00;;;3.03;;
1296;SDS011;641;48.492;9.184;2023-07-09T14:10:41;10.33;;;3.13;;
1296;SDS011;641;48.492;9.184;2023-07-09T14:13:17;9.47;;;3.10;;
1296;SDS011;641;48.492;9.184;2023-07-09T14:15:45;9.37;;;3.17;;
1296;SDS011;641;48.492;9.184;2023-07-09T14:18:14;11.00;;;3.10;;
1296;SDS011;641;48.492;9.184;2023-07-09T14:20:44;12.13;;;3.37;;
1296;SDS011;641;48.492;9.184;2023-07-09T14:23:11;10.60;;;4.60;;
1296;SDS011;641;48.492;9.184;2023-07-09T14:25:38;9.20;;;2.93;;
1296;SDS011;641;48.492;9.184;2023-07-09T14:28:07;10.90;;;3.30;;
1296;SDS011;641;48.492;9.184;2023-07-09T14:30:39;9.77;;;2.90;;
1296;SDS011;641;48.492;9.184;2023-07-09T14:33:08;9.57;;;3.20;;
1296;SDS011;641;48.492;9.184;2023-07-09T14:35:38;8.57;;;3.30;;
1296;SDS011;641;48.492;9.184;2023-07-09T14:38:06;8.97;;;3.30;;
1296;SDS011;641;48.492;9.184;2023-07-09T14:40:50;9.70;;;3.30;;
1296;SDS011;641;48.492;9.184;2023-07-09T14:43:18;10.20;;;3.00;;
1296;SDS011;641;48.492;9.184;2023-07-09T14:45:44;9.00;;;3.00;;
1296;SDS011;641;48.492;9.184;2023-07-09T14:48:14;9.33;;;2.97;;
1296;SDS011;641;48.492;9.184;2023-07-09T14:50:43;8.53;;;2.90;;
1296;SDS011;641;48.492;9.184;2023-07-09T14:53:14;10.43;;;2.90;;
1296;SDS011;641;48.492;9.184;2023-07-09T14:55:49;11.80;;;3.60;;
1296;SDS011;641;48.492;9.184;2023-07-09T14:58:15;13.50;;;3.10;;
1296;SDS011;641;48.492;9.184;2023-07-09T15:00:44;11.37;;;3.30;;
1296;SDS011;641;48.492;9.184;2023-07-09T15:03:17;9.90;;;3.33;;
1296;SDS011;641;48.492;9.184;2023-07-09T15:05:48;9.00;;;3.00;;
1296;SDS011;641;48.492;9.184;2023-07-09T15:08:15;9.33;;;2.70;;
1296;SDS011;641;48.492;9.184;2023-07-09T15:10:44;10.10;;;3.20;;
1296;SDS011;641;48.492;9.184;2023-07-09T15:13:14;9.13;;;2.97;;
1296;SDS011;641;48.492;9.184;2023-07-09T15:15:45;10.57;;;3.40;;
1296;SDS011;641;48.492;9.184;2023-07-09T15:18:12;12.30;;;3.23;;
1296;SDS011;641;48.492;9.184;2023-07-09T15:20:39;9.53;;;3.53;;
1296;SDS011;641;48.492;9.184;2023-07-09T15:23:10;9.43;;;3.57;;
1296;SDS011;641;48.492;9.184;2023-07-09T15:25:36;9.10;;;2.90;;
1296;SDS011;641;48.492;9.184;2023-07-09T15:28:03;12.23;;;3.40;;
1296;SDS011;641;48.492;9.184;2023-07-09T15:30:29;12.77;;;4.20;;
1296;SDS011;641;48.492;9.184;2023-07-09T15:32:59;8.50;;;2.97;;
1296;SDS011;641;48.492;9.184;2023-07-09T15:35:27;10.20;;;3.57;;
1296;SDS011;641;48.492;9.184;2023-07-09T15:37:56;10.07;;;3.40;;
1296;SDS011;641;48.492;9.184;2023-07-09T15:40:27;9.23;;;3.40;;
1296;SDS011;641;48.492;9.184;2023-07-09T15:42:55;12.70;;;3.50;;
1296;SDS011;641;48.492;9.184;2023-07-09T15:45:23;9.73;;;3.13;;
1296;SDS011;641;48.492;9.184;2023-07-09T15:47:49;9.90;;;3.57;;
1296;SDS011;641;48.492;9.184;2023-07-09T15:50:23;11.27;;;3.30;;
1296;SDS011;641;48.492;9.184;2023-07-09T15:52:51;9.53;;;2.93;;
1296;SDS011;641;48.492;9.184;2023-07-09T15:55:19;13.03;;;2.90;;
1296;SDS011;641;48.492;9.184;2023-07-09T15:57:52;11.40;;;3.73;;
1296;SDS011;641;48.492;9.184;2023-07-09T16:00:25;10.53;;;3.47;;
1296;SDS011;641;48.492;9.184;2023-07-09T16:02:53;9.60;;;3.10;;
1296;SDS011;641;48.492;9.184;2023-07-09T16:05:26;8.77;;;2.93;;
1296;SDS011;641;48.492;9.184;2023-07-09T16:07:57;11.43;;;3.33;;
1296;SDS011;641;48.492;9.184;2023-07-09T16:10:25;9.47;;;2.97;;
1296;SDS011;641;48.492;9.184;2023-07-09T16:12:53;10.17;;;3.23;;
1296;SDS011;641;48.492;9.184;2023-07-09T16:15:19;10.53;;;3.23;;